New Wells, Missouri
Current Conditions -  °F | °C
As of 1:53 AM on Monday 22 Dec 2014 (Local Time) from KCGI Reporting Station
Overcast Overcast  
Wind Chill: 38°   Ceiling: 9000
Heat Index: 42°   Visibility: 10mi
Dew Point: 34°   Wind: 6mph
Humidity: 73%   Direction: 140°SE
Pressure: 29.91"   Gusts: NA
Location:  37.5371°N, 89.5821°W
Report Text: KCGI 220753Z AUTO 14005KT 10SM OVC090 06/01 A2991 RMK AO2 SLP129 T00560011 TSNO
Loading
Personal Weather Stations






























Interactive Weather Map New forecast layout! Learn more

10-Day Weather Forecast

Advertisements
Track Severe Weather on mobile